createdAt,value
2022-09-26T00:00:48.050Z,50.60
2022-09-26T00:01:48.116Z,48.98
2022-09-26T00:02:48.087Z,47.53
2022-09-26T00:03:47.953Z,49.15
2022-09-26T00:04:47.997Z,48.18
2022-09-26T00:05:47.967Z,55.27
2022-09-26T00:06:47.982Z,47.86
2022-09-26T00:07:47.941Z,47.70
2022-09-26T00:08:47.961Z,49.95
2022-09-26T00:09:47.933Z,48.82
2022-09-26T00:10:47.957Z,53.17
2022-09-26T00:11:47.946Z,50.43
2022-09-26T00:12:47.915Z,49.47
2022-09-26T00:13:47.924Z,51.56
2022-09-26T00:14:47.892Z,51.08
2022-09-26T00:15:47.941Z,47.05
2022-09-26T00:16:47.965Z,46.89
2022-09-26T00:17:47.885Z,48.02
2022-09-26T00:18:47.884Z,47.05
2022-09-26T00:19:47.965Z,47.37
2022-09-26T00:20:47.903Z,50.92
2022-09-26T00:21:47.936Z,48.82
2022-09-26T00:22:47.872Z,51.40
2022-09-26T00:23:47.856Z,50.27
2022-09-26T00:24:47.909Z,48.98
2022-09-26T00:25:47.865Z,49.47
2022-09-26T00:26:47.881Z,49.95
2022-09-26T00:27:48.841Z,48.34
2022-09-26T00:28:47.831Z,48.18
2022-09-26T00:29:47.844Z,48.02
2022-09-26T00:30:47.864Z,47.37
2022-09-26T00:31:47.893Z,47.37
2022-09-26T00:32:47.821Z,47.53
2022-09-26T00:33:47.798Z,47.70
2022-09-26T00:34:48.798Z,51.56
2022-09-26T00:35:47.806Z,47.86
2022-09-26T00:36:47.821Z,51.24
2022-09-26T00:37:47.787Z,52.37
2022-09-26T00:38:47.781Z,55.27
2022-09-26T00:39:47.781Z,50.27
2022-09-26T00:40:47.803Z,47.53
2022-09-26T00:41:47.774Z,47.53
2022-09-26T00:42:47.766Z,50.11
2022-09-26T00:43:47.775Z,47.37
2022-09-26T00:44:47.753Z,47.21
2022-09-26T00:45:47.828Z,51.56
2022-09-26T00:46:47.762Z,49.95
2022-09-26T00:47:47.779Z,47.37
2022-09-26T00:48:47.745Z,47.37
2022-09-26T00:49:47.739Z,47.37
2022-09-26T00:50:47.726Z,47.37
2022-09-26T00:51:47.729Z,55.59
2022-09-26T00:52:47.769Z,57.69
2022-09-26T00:53:47.713Z,53.66
2022-09-26T00:54:47.703Z,56.72
2022-09-26T00:55:47.718Z,56.07
2022-09-26T00:56:47.693Z,47.21
2022-09-26T00:57:47.717Z,47.21
2022-09-26T00:58:47.694Z,47.70
2022-09-26T00:59:47.684Z,59.30
2022-09-26T01:00:47.715Z,58.17
2022-09-26T01:01:47.800Z,47.37
2022-09-26T01:02:47.737Z,54.95
2022-09-26T01:03:47.691Z,55.75
2022-09-26T01:04:47.662Z,47.37
2022-09-26T01:05:47.685Z,48.02
2022-09-26T01:06:47.644Z,58.65
2022-09-26T01:07:47.653Z,50.11
2022-09-26T01:08:47.673Z,55.75
2022-09-26T01:09:47.658Z,47.37
2022-09-26T01:10:47.657Z,48.34
2022-09-26T01:11:48.573Z,57.69
2022-09-26T01:12:47.621Z,58.17
2022-09-26T01:13:47.608Z,56.72
2022-09-26T01:14:47.702Z,52.53
2022-09-26T01:15:47.589Z,55.75
2022-09-26T01:16:47.650Z,47.70
2022-09-26T01:17:47.572Z,56.88
2022-09-26T01:18:47.595Z,57.04
2022-09-26T01:19:47.590Z,49.47
2022-09-26T01:20:47.617Z,47.37
2022-09-26T01:21:47.586Z,49.15
2022-09-26T01:22:47.567Z,48.82
2022-09-26T01:23:47.568Z,55.91
2022-09-26T01:24:47.578Z,55.75
2022-09-26T01:25:47.592Z,55.11
2022-09-26T01:26:47.563Z,48.02
2022-09-26T01:27:47.541Z,47.53
2022-09-26T01:28:47.683Z,47.37
2022-09-26T01:29:47.515Z,48.18
2022-09-26T01:30:47.567Z,47.86
2022-09-26T01:31:47.492Z,57.20
2022-09-26T01:32:47.542Z,59.46
2022-09-26T01:33:47.497Z,55.75
2022-09-26T01:34:48.519Z,55.91
2022-09-26T01:35:47.499Z,60.26
2022-09-26T01:36:47.495Z,52.37
2022-09-26T01:37:47.509Z,54.62
2022-09-26T01:38:47.484Z,47.86
2022-09-26T01:39:47.470Z,51.56
2022-09-26T01:40:47.523Z,49.95
2022-09-26T01:41:47.476Z,56.24
2022-09-26T01:42:47.496Z,62.52
2022-09-26T01:43:47.464Z,55.11
2022-09-26T01:44:47.429Z,54.30
2022-09-26T01:45:47.470Z,54.30
2022-09-26T01:46:47.461Z,49.63
2022-09-26T01:47:47.445Z,48.34
2022-09-26T01:48:47.416Z,47.70
2022-09-26T01:49:47.439Z,54.30
2022-09-26T01:50:47.402Z,50.27
2022-09-26T01:51:47.412Z,53.50
2022-09-26T01:52:47.397Z,52.53
2022-09-26T01:53:47.385Z,56.07
2022-09-26T01:54:47.575Z,50.43
2022-09-26T01:55:47.392Z,54.30
2022-09-26T01:56:47.376Z,56.07
2022-09-26T01:57:47.389Z,53.01
2022-09-26T01:58:47.379Z,47.70
2022-09-26T01:59:47.400Z,52.21
2022-09-26T02:00:47.377Z,58.81
2022-09-26T02:01:47.421Z,57.20
2022-09-26T02:02:47.390Z,55.91
2022-09-26T02:03:47.338Z,55.27
2022-09-26T02:04:47.366Z,59.78
2022-09-26T02:05:47.332Z,49.31
2022-09-26T02:06:47.313Z,51.24
2022-09-26T02:07:47.300Z,56.56
2022-09-26T02:08:48.311Z,56.72
2022-09-26T02:09:47.304Z,55.11
2022-09-26T02:10:47.328Z,55.59
2022-09-26T02:11:47.327Z,57.20
2022-09-26T02:12:47.375Z,57.52
2022-09-26T02:13:47.397Z,54.14
2022-09-26T02:14:47.291Z,60.42
2022-09-26T02:15:47.340Z,61.87
2022-09-26T02:16:47.456Z,56.07
2022-09-26T02:17:47.268Z,57.85
2022-09-26T02:18:47.247Z,55.27
2022-09-26T02:19:47.246Z,53.50
2022-09-26T02:20:47.250Z,49.47
2022-09-26T02:21:47.265Z,64.13
2022-09-26T02:22:47.240Z,60.75
2022-09-26T02:23:47.235Z,60.42
2022-09-26T02:24:47.252Z,60.75
2022-09-26T02:25:47.245Z,61.55
2022-09-26T02:26:47.244Z,60.91
2022-09-26T02:27:47.251Z,61.71
2022-09-26T02:28:47.216Z,65.90
2022-09-26T02:29:47.209Z,61.07
2022-09-26T02:30:47.202Z,59.30
2022-09-26T02:31:47.283Z,58.65
2022-09-26T02:32:47.250Z,57.85
2022-09-26T02:33:47.220Z,55.75
2022-09-26T02:34:47.200Z,56.40
2022-09-26T02:35:47.185Z,59.78
2022-09-26T02:36:47.181Z,59.14
2022-09-26T02:37:47.198Z,55.75
2022-09-26T02:38:47.209Z,48.50
2022-09-26T02:39:47.157Z,55.11
2022-09-26T02:40:47.237Z,58.49
2022-09-26T02:41:47.154Z,55.43
2022-09-26T02:42:47.135Z,58.17
2022-09-26T02:43:47.134Z,57.85
2022-09-26T02:44:47.139Z,53.98
2022-09-26T02:45:47.246Z,56.24
2022-09-26T02:46:47.142Z,56.24
2022-09-26T02:47:47.161Z,56.72
2022-09-26T02:48:47.175Z,56.40
2022-09-26T02:49:47.105Z,51.56
2022-09-26T02:50:47.171Z,47.86
2022-09-26T02:51:47.112Z,58.65
2022-09-26T02:52:47.116Z,59.62
2022-09-26T02:53:47.126Z,55.75
2022-09-26T02:54:47.085Z,54.14
2022-09-26T02:55:47.092Z,59.78
2022-09-26T02:56:47.084Z,60.10
2022-09-26T02:57:47.105Z,58.81
2022-09-26T02:58:47.065Z,59.62
2022-09-26T02:59:47.059Z,53.98
2022-09-26T03:00:47.134Z,58.97
2022-09-26T03:01:47.039Z,59.78
2022-09-26T03:02:47.083Z,55.27
2022-09-26T03:03:47.098Z,59.94
2022-09-26T03:04:47.080Z,58.81
2022-09-26T03:05:47.020Z,57.85
2022-09-26T03:06:47.120Z,53.82
2022-09-26T03:07:47.038Z,54.62
2022-09-26T03:08:47.019Z,59.14
2022-09-26T03:09:46.999Z,60.26
2022-09-26T03:10:47.005Z,58.81
2022-09-26T03:11:47.020Z,59.46
2022-09-26T03:12:47.016Z,50.60
2022-09-26T03:13:47.007Z,57.36
2022-09-26T03:14:46.979Z,61.23
2022-09-26T03:15:46.981Z,59.62
2022-09-26T03:16:47.021Z,60.42
2022-09-26T03:17:46.965Z,61.71
2022-09-26T03:18:46.971Z,57.36
2022-09-26T03:19:46.958Z,59.62
2022-09-26T03:20:46.950Z,61.55
2022-09-26T03:21:46.938Z,59.46
2022-09-26T03:22:46.954Z,61.23
2022-09-26T03:23:46.945Z,59.94
2022-09-26T03:24:46.979Z,60.75
2022-09-26T03:25:46.939Z,60.26
2022-09-26T03:26:46.925Z,60.26
2022-09-26T03:27:46.902Z,58.49
2022-09-26T03:28:46.918Z,61.71
2022-09-26T03:29:46.938Z,61.23
2022-09-26T03:30:46.911Z,61.71
2022-09-26T03:31:46.963Z,58.81
2022-09-26T03:32:46.877Z,61.23
2022-09-26T03:33:46.881Z,60.42
2022-09-26T03:34:46.898Z,63.49
2022-09-26T03:35:46.862Z,57.04
2022-09-26T03:36:46.862Z,60.26
2022-09-26T03:37:46.875Z,58.01
2022-09-26T03:38:46.882Z,59.62
2022-09-26T03:39:46.872Z,61.23
2022-09-26T03:40:46.906Z,58.97
2022-09-26T03:41:46.875Z,59.62
2022-09-26T03:42:46.849Z,61.07
2022-09-26T03:43:46.834Z,58.81
2022-09-26T03:44:46.833Z,60.75
2022-09-26T03:45:46.880Z,59.30
2022-09-26T03:46:46.845Z,57.20
2022-09-26T03:47:46.815Z,60.42
2022-09-26T03:48:46.803Z,60.10
2022-09-26T03:49:46.826Z,59.46
2022-09-26T03:50:46.831Z,59.46
2022-09-26T03:51:46.798Z,58.17
2022-09-26T03:52:46.819Z,60.75
2022-09-26T03:53:46.819Z,60.75
2022-09-26T03:54:46.771Z,58.17
2022-09-26T03:55:46.778Z,58.49
2022-09-26T03:56:46.793Z,61.87
2022-09-26T03:57:46.789Z,60.75
2022-09-26T03:58:46.760Z,59.78
2022-09-26T03:59:46.750Z,65.10
2022-09-26T04:00:46.815Z,61.71
2022-09-26T04:01:46.779Z,61.39
2022-09-26T04:02:46.776Z,61.39
2022-09-26T04:03:50.581Z,59.46
2022-09-26T04:04:47.733Z,61.23
2022-09-26T04:05:46.733Z,61.39
2022-09-26T04:06:46.745Z,60.75
2022-09-26T04:07:46.708Z,60.42
2022-09-26T04:08:46.717Z,60.26
2022-09-26T04:09:46.713Z,63.00
2022-09-26T04:10:46.702Z,59.14
2022-09-26T04:11:46.707Z,60.59
2022-09-26T04:12:46.696Z,56.56
2022-09-26T04:13:52.009Z,61.23
2022-09-26T04:14:48.754Z,60.26
2022-09-26T04:15:46.689Z,60.10
2022-09-26T04:16:46.758Z,63.00
2022-09-26T04:17:46.661Z,60.26
2022-09-26T04:18:46.656Z,60.59
2022-09-26T04:19:46.678Z,59.46
2022-09-26T04:20:46.704Z,65.58
2022-09-26T04:21:46.664Z,60.75
2022-09-26T04:22:46.645Z,61.39
2022-09-26T04:23:46.632Z,61.23
2022-09-26T04:24:46.670Z,62.68
2022-09-26T04:25:46.643Z,63.49
2022-09-26T04:26:46.711Z,63.81
2022-09-26T04:27:46.622Z,61.87
2022-09-26T04:28:46.622Z,61.23
2022-09-26T04:29:46.660Z,60.75
2022-09-26T04:30:46.618Z,60.75
2022-09-26T04:31:46.732Z,62.52
2022-09-26T04:32:46.616Z,61.87
2022-09-26T04:33:46.620Z,62.20
2022-09-26T04:34:46.609Z,60.26
2022-09-26T04:35:46.593Z,60.26
2022-09-26T04:36:47.616Z,60.91
2022-09-26T04:37:46.652Z,61.87
2022-09-26T04:38:46.584Z,62.52
2022-09-26T04:39:46.582Z,60.26
2022-09-26T04:40:46.616Z,62.84
2022-09-26T04:41:46.583Z,62.68
2022-09-26T04:42:46.624Z,62.52
2022-09-26T04:43:46.577Z,63.97
2022-09-26T04:44:46.629Z,61.55
2022-09-26T04:45:47.440Z,62.04
2022-09-26T04:46:46.540Z,58.49
2022-09-26T04:47:46.580Z,59.78
2022-09-26T04:48:46.551Z,62.36
2022-09-26T04:49:46.544Z,60.10
2022-09-26T04:50:46.512Z,60.75
2022-09-26T04:51:46.527Z,61.39
2022-09-26T04:52:46.498Z,61.55
2022-09-26T04:53:46.556Z,60.26
2022-09-26T04:54:46.500Z,63.81
2022-09-26T04:55:46.506Z,61.39
2022-09-26T04:56:46.500Z,62.52
2022-09-26T04:57:46.486Z,61.71
2022-09-26T04:58:46.527Z,61.55
2022-09-26T04:59:46.543Z,63.97
2022-09-26T05:00:46.525Z,61.55
2022-09-26T05:01:46.584Z,62.36
2022-09-26T05:02:46.481Z,63.16
2022-09-26T05:03:46.497Z,66.06
2022-09-26T05:04:46.480Z,63.16
2022-09-26T05:05:46.485Z,60.26
2022-09-26T05:06:46.626Z,61.07
2022-09-26T05:07:46.431Z,61.23
2022-09-26T05:08:46.564Z,61.23
2022-09-26T05:09:46.441Z,62.20
2022-09-26T05:10:46.476Z,69.29
2022-09-26T05:11:46.418Z,61.07
2022-09-26T05:12:46.411Z,60.42
2022-09-26T05:13:50.093Z,63.49
2022-09-26T05:14:47.392Z,62.52
2022-09-26T05:15:46.465Z,61.71
2022-09-26T05:16:46.470Z,62.04
2022-09-26T05:17:46.391Z,61.87
2022-09-26T05:18:46.378Z,61.87
2022-09-26T05:19:46.403Z,63.16
2022-09-26T05:20:46.442Z,62.52
2022-09-26T05:21:46.379Z,62.84
2022-09-26T05:22:46.391Z,60.75
2022-09-26T05:23:46.373Z,64.45
2022-09-26T05:24:46.344Z,60.91
2022-09-26T05:25:46.371Z,62.36
2022-09-26T05:26:46.355Z,62.68
2022-09-26T05:27:46.360Z,63.33
2022-09-26T05:28:46.321Z,61.23
2022-09-26T05:29:46.341Z,61.23
2022-09-26T05:30:46.351Z,62.68
2022-09-26T05:31:46.398Z,63.81
2022-09-26T05:32:46.312Z,63.65
2022-09-26T05:33:46.377Z,61.23
2022-09-26T05:34:46.321Z,61.07
2022-09-26T05:35:46.340Z,60.26
2022-09-26T05:36:46.301Z,62.52
2022-09-26T05:37:46.291Z,64.13
2022-09-26T05:38:46.432Z,60.75
2022-09-26T05:39:46.307Z,61.71
2022-09-26T05:40:46.317Z,60.75
2022-09-26T05:41:46.308Z,61.07
2022-09-26T05:42:46.284Z,61.55
2022-09-26T05:43:46.330Z,60.75
2022-09-26T05:44:46.283Z,61.71
2022-09-26T05:45:46.406Z,62.04
2022-09-26T05:46:46.371Z,60.42
2022-09-26T05:47:46.253Z,63.00
2022-09-26T05:48:46.251Z,60.75
2022-09-26T05:49:46.257Z,60.75
2022-09-26T05:50:46.247Z,61.87
2022-09-26T05:51:46.244Z,61.39
2022-09-26T05:52:46.208Z,63.33
2022-09-26T05:53:46.283Z,62.52
2022-09-26T05:54:46.270Z,60.59
2022-09-26T05:55:46.322Z,62.84
2022-09-26T05:56:46.211Z,61.23
2022-09-26T05:57:46.185Z,60.91
2022-09-26T05:58:46.191Z,62.68
2022-09-26T05:59:46.197Z,58.81
2022-09-26T06:00:46.271Z,60.91
2022-09-26T06:01:47.143Z,63.65
2022-09-26T06:02:46.215Z,60.26
2022-09-26T06:03:46.184Z,60.59
2022-09-26T06:04:46.149Z,60.26
2022-09-26T06:05:46.155Z,62.52
2022-09-26T06:06:46.170Z,60.26
2022-09-26T06:07:46.186Z,60.26
2022-09-26T06:08:46.115Z,60.42
2022-09-26T06:09:46.185Z,61.07
2022-09-26T06:10:46.120Z,59.30
2022-09-26T06:11:46.124Z,60.91
2022-09-26T06:12:50.727Z,62.52
2022-09-26T06:13:48.128Z,61.23
2022-09-26T06:14:46.144Z,60.10
2022-09-26T06:15:46.135Z,57.69
2022-09-26T06:16:46.183Z,61.23
2022-09-26T06:17:46.120Z,61.87
2022-09-26T06:18:46.129Z,70.58
2022-09-26T06:19:46.140Z,64.61
2022-09-26T06:20:46.070Z,60.91
2022-09-26T06:21:46.091Z,60.75
2022-09-26T06:22:46.147Z,58.65
2022-09-26T06:23:46.117Z,59.78
2022-09-26T06:24:46.094Z,60.10
2022-09-26T06:25:46.064Z,62.20
2022-09-26T06:26:46.053Z,61.55
2022-09-26T06:27:46.099Z,60.42
2022-09-26T06:28:46.088Z,60.75
2022-09-26T06:29:46.054Z,61.39
2022-09-26T06:30:46.072Z,62.68
2022-09-26T06:31:46.142Z,63.33
2022-09-26T06:32:46.023Z,59.62
2022-09-26T06:33:46.064Z,58.81
2022-09-26T06:34:46.105Z,58.01
2022-09-26T06:35:46.020Z,62.36
2022-09-26T06:36:46.021Z,60.26
2022-09-26T06:37:46.022Z,59.30
2022-09-26T06:38:46.051Z,59.62
2022-09-26T06:39:46.056Z,60.42
2022-09-26T06:40:46.057Z,62.04
2022-09-26T06:41:45.976Z,59.30
2022-09-26T06:42:46.043Z,60.59
2022-09-26T06:43:45.971Z,60.42
2022-09-26T06:44:47.002Z,59.30
2022-09-26T06:45:45.992Z,60.59
2022-09-26T06:46:45.986Z,61.23
2022-09-26T06:47:46.023Z,57.04
2022-09-26T06:48:45.961Z,62.20
2022-09-26T06:49:45.958Z,60.42
2022-09-26T06:50:45.980Z,60.26
2022-09-26T06:51:46.967Z,61.07
2022-09-26T06:52:45.948Z,60.26
2022-09-26T06:53:46.003Z,58.97
2022-09-26T06:54:45.935Z,59.94
2022-09-26T06:55:45.935Z,61.55
2022-09-26T06:56:45.937Z,59.14
2022-09-26T06:57:47.109Z,59.30
2022-09-26T06:58:45.898Z,63.16
2022-09-26T06:59:45.889Z,62.36
2022-09-26T07:00:46.030Z,64.61
2022-09-26T07:01:45.965Z,59.62
2022-09-26T07:02:45.876Z,60.75
2022-09-26T07:03:46.264Z,60.59
2022-09-26T07:04:45.882Z,56.88
2022-09-26T07:05:45.884Z,56.56
2022-09-26T07:06:45.913Z,64.29
2022-09-26T07:07:45.932Z,59.46
2022-09-26T07:09:03.881Z,62.04
2022-09-26T07:09:47.849Z,58.81
2022-09-26T07:10:45.835Z,59.94
2022-09-26T07:12:12.863Z,57.69
2022-09-26T07:12:47.861Z,61.39
2022-09-26T07:13:45.837Z,60.10
2022-09-26T07:14:48.872Z,59.14
2022-09-26T07:15:46.874Z,61.71
2022-09-26T07:16:45.810Z,61.39
2022-09-26T07:17:45.794Z,65.10
2022-09-26T07:18:45.801Z,59.14
2022-09-26T07:19:45.907Z,57.85
2022-09-26T07:20:45.760Z,61.39
2022-09-26T07:21:45.770Z,60.42
2022-09-26T07:22:45.794Z,59.46
2022-09-26T07:23:45.780Z,59.94
2022-09-26T07:24:45.841Z,63.00
2022-09-26T07:25:45.843Z,59.78
2022-09-26T07:26:45.940Z,60.42
2022-09-26T07:27:45.842Z,59.46
2022-09-26T07:28:47.742Z,61.23
2022-09-26T07:29:46.790Z,64.78
2022-09-26T07:30:45.811Z,64.94
2022-09-26T07:31:45.879Z,60.91
2022-09-26T07:32:45.761Z,60.59
2022-09-26T07:33:45.693Z,61.07
2022-09-26T07:34:45.838Z,59.30
2022-09-26T07:35:45.793Z,58.17
2022-09-26T07:36:45.685Z,59.46
2022-09-26T07:37:45.719Z,61.71
2022-09-26T07:38:45.709Z,69.61
2022-09-26T07:39:47.415Z,59.78
2022-09-26T07:40:45.741Z,60.75
2022-09-26T07:41:46.163Z,63.16
2022-09-26T07:42:58.593Z,60.10
2022-09-26T07:45:47.624Z,69.61
2022-09-26T07:46:45.795Z,70.90
2022-09-26T07:47:45.605Z,58.97
2022-09-26T07:48:45.608Z,59.30
2022-09-26T07:49:45.628Z,62.36
2022-09-26T07:50:45.614Z,57.69
2022-09-26T07:51:45.660Z,59.78
2022-09-26T07:52:45.630Z,64.61
2022-09-26T07:53:45.626Z,59.94
2022-09-26T07:54:45.587Z,60.26
2022-09-26T07:55:45.576Z,58.17
2022-09-26T07:56:45.587Z,61.23
2022-09-26T07:57:45.572Z,60.75
2022-09-26T07:58:45.564Z,60.26
2022-09-26T07:59:45.565Z,58.81
2022-09-26T08:00:45.588Z,61.07
2022-09-26T08:01:45.571Z,61.39
2022-09-26T08:02:45.632Z,60.59
2022-09-26T08:03:45.514Z,60.26
2022-09-26T08:04:45.506Z,58.97
2022-09-26T08:05:45.564Z,58.49
2022-09-26T08:06:45.510Z,60.26
2022-09-26T08:07:45.492Z,58.01
2022-09-26T08:08:46.526Z,59.78
2022-09-26T08:09:45.493Z,60.10
2022-09-26T08:10:45.486Z,59.30
2022-09-26T08:11:45.476Z,59.30
2022-09-26T08:12:45.477Z,60.26
2022-09-26T08:13:45.513Z,60.59
2022-09-26T08:14:45.442Z,60.26
2022-09-26T08:15:45.478Z,61.23
2022-09-26T08:16:45.450Z,60.91
2022-09-26T08:17:45.496Z,61.07
2022-09-26T08:18:45.440Z,65.74
2022-09-26T08:19:45.460Z,69.61
2022-09-26T08:20:45.425Z,60.75
2022-09-26T08:21:45.448Z,58.17
2022-09-26T08:22:45.418Z,56.88
2022-09-26T08:23:45.424Z,62.36
2022-09-26T08:24:45.406Z,57.20
2022-09-26T08:25:45.393Z,57.52
2022-09-26T08:26:45.438Z,60.10
2022-09-26T08:27:45.407Z,59.78
2022-09-26T08:28:45.363Z,59.30
2022-09-26T08:29:45.462Z,58.49
2022-09-26T08:30:45.359Z,61.87
2022-09-26T08:31:45.381Z,59.78
2022-09-26T08:32:45.383Z,59.30
2022-09-26T08:33:45.360Z,59.14
2022-09-26T08:34:45.316Z,58.17
2022-09-26T08:35:45.318Z,59.14
2022-09-26T08:36:45.317Z,58.49
2022-09-26T08:37:45.321Z,59.30
2022-09-26T08:38:45.337Z,59.14
2022-09-26T08:39:45.310Z,63.65
2022-09-26T08:40:45.330Z,59.14
2022-09-26T08:41:45.302Z,57.52
2022-09-26T08:42:45.305Z,60.59
2022-09-26T08:43:45.315Z,59.30
2022-09-26T08:44:45.379Z,56.72
2022-09-26T08:45:47.717Z,59.46
2022-09-26T08:46:46.296Z,59.30
2022-09-26T08:47:45.258Z,59.30
2022-09-26T08:48:45.329Z,58.33
2022-09-26T08:49:45.241Z,60.75
2022-09-26T08:50:45.236Z,59.30
2022-09-26T08:51:45.261Z,60.26
2022-09-26T08:52:45.225Z,60.10
2022-09-26T08:53:45.229Z,62.52
2022-09-26T08:54:45.232Z,59.30
2022-09-26T08:55:45.189Z,59.30
2022-09-26T08:56:45.205Z,61.71
2022-09-26T08:57:45.178Z,58.65
2022-09-26T08:58:45.192Z,58.49
2022-09-26T08:59:45.207Z,59.62
2022-09-26T09:00:45.197Z,65.10
2022-09-26T09:01:45.273Z,61.71
2022-09-26T09:02:45.352Z,63.16
2022-09-26T09:03:45.123Z,62.36
2022-09-26T09:04:46.500Z,59.94
2022-09-26T09:05:45.151Z,56.88
2022-09-26T09:06:45.159Z,59.30
2022-09-26T09:07:45.106Z,58.17
2022-09-26T09:08:45.105Z,58.33
2022-09-26T09:09:45.084Z,59.62
2022-09-26T09:10:45.137Z,61.87
2022-09-26T09:11:48.059Z,57.36
2022-09-26T09:12:46.103Z,59.14
2022-09-26T09:13:45.093Z,59.94
2022-09-26T09:14:45.049Z,57.69
2022-09-26T09:15:45.080Z,58.01
2022-09-26T09:16:45.063Z,56.40
2022-09-26T09:17:45.024Z,59.94
2022-09-26T09:18:45.030Z,57.85
2022-09-26T09:19:45.008Z,59.30
2022-09-26T09:20:45.011Z,60.26
2022-09-26T09:21:45.037Z,57.52
2022-09-26T09:22:45.031Z,59.46
2022-09-26T09:23:44.984Z,58.49
2022-09-26T09:24:44.983Z,59.94
2022-09-26T09:25:44.966Z,60.10
2022-09-26T09:27:54.697Z,57.52
2022-09-26T09:28:47.033Z,61.71
2022-09-26T09:29:49.347Z,60.59
2022-09-26T09:30:45.949Z,59.30
2022-09-26T09:31:44.989Z,59.62
2022-09-26T09:32:44.948Z,59.94
2022-09-26T09:33:44.896Z,60.91
2022-09-26T09:34:44.873Z,58.01
2022-09-26T09:35:44.895Z,58.17
2022-09-26T09:36:44.941Z,58.17
2022-09-26T09:37:44.914Z,56.88
2022-09-26T09:38:44.879Z,59.14
2022-09-26T09:39:44.903Z,59.14
2022-09-26T09:40:45.003Z,61.07
2022-09-26T09:41:44.886Z,58.65
2022-09-26T09:42:44.823Z,58.01
2022-09-26T09:43:44.861Z,59.62
2022-09-26T09:44:46.961Z,59.62
2022-09-26T09:45:45.800Z,60.75
2022-09-26T09:46:44.877Z,59.78
2022-09-26T09:47:44.878Z,60.10
2022-09-26T09:48:44.787Z,57.52
2022-09-26T09:49:44.897Z,61.07
2022-09-26T09:50:44.772Z,58.17
2022-09-26T09:51:44.775Z,58.49
2022-09-26T09:52:44.773Z,61.39
2022-09-26T09:53:44.755Z,62.36
2022-09-26T09:54:44.776Z,61.23
2022-09-26T09:55:44.757Z,58.33
2022-09-26T09:56:44.734Z,61.23
2022-09-26T09:57:44.723Z,60.59
2022-09-26T09:58:44.716Z,59.46
2022-09-26T09:59:44.722Z,62.84
2022-09-26T10:00:49.064Z,67.03
2022-09-26T10:01:46.717Z,60.75
2022-09-26T10:02:44.742Z,61.55
2022-09-26T10:03:44.743Z,57.85
2022-09-26T10:04:44.663Z,61.55
2022-09-26T10:05:44.707Z,64.13
2022-09-26T10:06:47.377Z,59.30
2022-09-26T10:07:44.656Z,61.23
2022-09-26T10:08:44.628Z,61.07
2022-09-26T10:09:44.643Z,60.26
2022-09-26T10:10:44.708Z,62.84
2022-09-26T10:11:47.965Z,61.87
2022-09-26T10:12:45.611Z,61.55
2022-09-26T10:13:44.596Z,62.68
2022-09-26T10:14:44.582Z,60.26
2022-09-26T10:15:44.611Z,59.46
2022-09-26T10:16:44.573Z,60.26
2022-09-26T10:18:00.896Z,59.46
2022-09-26T10:18:46.560Z,58.17
2022-09-26T10:19:44.538Z,61.71
2022-09-26T10:20:44.543Z,60.91
2022-09-26T10:21:44.545Z,58.49
2022-09-26T10:22:44.558Z,59.94
2022-09-26T10:23:44.542Z,57.85
2022-09-26T10:24:44.512Z,59.62
2022-09-26T10:25:44.502Z,60.10
2022-09-26T10:26:44.551Z,61.23
2022-09-26T10:27:44.497Z,58.81
2022-09-26T10:28:44.522Z,60.75
2022-09-26T10:29:44.468Z,61.07
2022-09-26T10:30:44.498Z,59.78
2022-09-26T10:31:44.516Z,61.71
2022-09-26T10:32:44.517Z,60.75
2022-09-26T10:33:44.470Z,60.91
2022-09-26T10:34:44.455Z,59.78
2022-09-26T10:35:44.459Z,58.65
2022-09-26T10:36:44.438Z,59.78
2022-09-26T10:37:44.408Z,58.49
2022-09-26T10:38:44.407Z,58.49
2022-09-26T10:39:44.380Z,58.65
2022-09-26T10:40:44.432Z,61.23
2022-09-26T10:41:44.367Z,58.17
2022-09-26T10:42:44.346Z,58.97
2022-09-26T10:43:44.360Z,57.52
2022-09-26T10:44:44.367Z,60.75
2022-09-26T10:45:44.354Z,55.75
2022-09-26T10:46:44.388Z,57.52
2022-09-26T10:47:44.327Z,58.97
2022-09-26T10:48:44.310Z,62.04
2022-09-26T10:49:44.347Z,59.94
2022-09-26T10:50:44.292Z,60.10
2022-09-26T10:51:44.309Z,59.78
2022-09-26T10:52:44.279Z,58.17
2022-09-26T10:53:44.277Z,58.01
2022-09-26T10:54:44.334Z,57.52
2022-09-26T10:55:44.303Z,58.81
2022-09-26T10:56:44.298Z,61.07
2022-09-26T10:57:45.599Z,58.97
2022-09-26T10:58:44.249Z,61.71
2022-09-26T10:59:44.247Z,57.20
2022-09-26T11:00:44.261Z,58.97
2022-09-26T11:01:44.268Z,59.62
2022-09-26T11:02:44.225Z,58.17
2022-09-26T11:03:44.277Z,59.62
2022-09-26T11:04:44.269Z,63.81
2022-09-26T11:05:44.262Z,68.16
2022-09-26T11:06:44.194Z,72.51
2022-09-26T11:07:44.179Z,61.23
2022-09-26T11:08:44.236Z,56.88
2022-09-26T11:09:44.151Z,59.62
2022-09-26T11:10:44.149Z,58.49
2022-09-26T11:11:44.164Z,61.71
2022-09-26T11:12:44.146Z,57.85
2022-09-26T11:13:44.109Z,59.46
2022-09-26T11:14:44.146Z,58.01
2022-09-26T11:15:44.123Z,58.81
2022-09-26T11:16:44.135Z,60.10
2022-09-26T11:17:44.220Z,58.01
2022-09-26T11:18:44.108Z,59.30
2022-09-26T11:19:44.082Z,58.81
2022-09-26T11:20:44.086Z,58.01
2022-09-26T11:21:44.049Z,62.04
2022-09-26T11:22:45.095Z,58.97
2022-09-26T11:23:44.071Z,58.81
2022-09-26T11:24:44.074Z,58.81
2022-09-26T11:25:44.038Z,59.62
2022-09-26T11:26:44.023Z,60.10
2022-09-26T11:27:44.057Z,55.59
2022-09-26T11:28:43.992Z,61.55
2022-09-26T11:29:43.982Z,63.16
2022-09-26T11:30:44.034Z,60.59
2022-09-26T11:31:44.146Z,59.30
2022-09-26T11:32:43.979Z,56.88
2022-09-26T11:33:43.981Z,59.62
2022-09-26T11:34:43.985Z,59.46
2022-09-26T11:35:43.940Z,58.81
2022-09-26T11:36:44.968Z,61.07
2022-09-26T11:37:43.955Z,58.81
2022-09-26T11:38:43.926Z,56.56
2022-09-26T11:39:43.920Z,59.46
2022-09-26T11:40:44.004Z,61.39
2022-09-26T11:41:43.898Z,60.59
2022-09-26T11:42:43.928Z,58.33
2022-09-26T11:43:43.910Z,58.97
2022-09-26T11:44:43.912Z,59.78
2022-09-26T11:45:47.348Z,63.81
2022-09-26T11:46:44.892Z,61.07
2022-09-26T11:47:43.864Z,62.20
2022-09-26T11:48:43.842Z,60.59
2022-09-26T11:49:44.532Z,59.78
2022-09-26T11:50:43.844Z,58.81
2022-09-26T11:51:43.809Z,57.69
2022-09-26T11:52:48.356Z,61.07
2022-09-26T11:53:45.813Z,57.52
2022-09-26T11:54:43.810Z,62.52
2022-09-26T11:55:43.799Z,63.16
2022-09-26T11:56:43.764Z,63.33
2022-09-26T11:57:44.793Z,62.68
2022-09-26T11:58:43.776Z,61.55
2022-09-26T11:59:43.785Z,58.49
2022-09-26T12:00:43.817Z,62.20
2022-09-26T12:01:43.758Z,64.45
2022-09-26T12:02:43.792Z,62.52
2022-09-26T12:03:43.857Z,60.59
2022-09-26T12:04:43.710Z,66.39
2022-09-26T12:05:43.708Z,61.23
2022-09-26T12:06:43.726Z,59.78
2022-09-26T12:07:43.698Z,59.62
2022-09-26T12:08:43.711Z,60.10
2022-09-26T12:09:43.725Z,57.04
2022-09-26T12:10:43.692Z,57.85
2022-09-26T12:11:43.678Z,58.33
2022-09-26T12:12:43.645Z,61.87
2022-09-26T12:13:43.690Z,59.14
2022-09-26T12:14:43.642Z,61.87
2022-09-26T12:15:43.760Z,70.90
2022-09-26T12:16:43.672Z,63.16
2022-09-26T12:17:43.613Z,64.13
2022-09-26T12:18:43.619Z,62.84
2022-09-26T12:19:43.594Z,64.29
2022-09-26T12:20:43.603Z,63.65
2022-09-26T12:21:43.573Z,62.04
2022-09-26T12:22:43.578Z,63.81
2022-09-26T12:23:43.617Z,65.10
2022-09-26T12:24:43.594Z,63.33
2022-09-26T12:25:43.553Z,63.00
2022-09-26T12:26:43.532Z,61.87
2022-09-26T12:27:43.564Z,62.04
2022-09-26T12:28:43.540Z,62.36
2022-09-26T12:29:43.545Z,62.84
2022-09-26T12:30:43.590Z,59.62
2022-09-26T12:31:43.556Z,59.46
2022-09-26T12:32:43.493Z,69.93
2022-09-26T12:33:43.570Z,59.62
2022-09-26T12:34:43.494Z,58.97
2022-09-26T12:35:43.452Z,60.75
2022-09-26T12:36:43.460Z,60.26
2022-09-26T12:37:43.462Z,62.20
2022-09-26T12:38:43.469Z,61.87
2022-09-26T12:39:43.439Z,60.75
2022-09-26T12:40:43.507Z,61.39
2022-09-26T12:41:43.465Z,64.13
2022-09-26T12:42:43.435Z,59.62
2022-09-26T12:43:43.479Z,60.10
2022-09-26T12:44:43.441Z,60.91
2022-09-26T12:45:43.395Z,60.26
2022-09-26T12:46:43.499Z,72.19
2022-09-26T12:47:43.391Z,59.94
2022-09-26T12:48:43.418Z,58.33
2022-09-26T12:49:43.379Z,59.30
2022-09-26T12:50:43.344Z,60.75
2022-09-26T12:51:43.383Z,58.01
2022-09-26T12:52:43.321Z,58.65
2022-09-26T12:53:43.386Z,61.39
2022-09-26T12:54:43.430Z,60.91
2022-09-26T12:55:43.309Z,60.91